Ginys del Meteocat
Campanya meteocatpedra

Dades de l'estació automàtica Perafita

?
?
Resum diari 22:30 TU
Dades diàries de l'estació meteorològica
Temperatura mitjana 10.0 °C
Temperatura màxima 13.8 °C 12:40 TU
Temperatura mínima 7.3 °C 5:22 TU
Humitat relativa mitjana 97%
Precipitació acumulada 0.6 mm
Ratxa màxima del vent (6 m) 16.6 km/h - 133º 11:38 TU
Irradiació solar global 4.1 MJ/m2

El tram horari està expressat en Temps Universal (TU). Cal sumar una hora en horari d'hivern i dues en horari d'estiu per passar a l'hora oficial.

Perafita

Metadades estació meteorol´gica
Municipi Perafita
Comarca Osona
Altitud 774 m
Data alta 03.07.1995
Estat actual Operativa
Dades de període
Període
TU
TM
°C
TX
°C
TN
°C
HRM
%
PPT
mm
VVM (6 m)
km/h
DVM (6 m)
graus
VVX (6 m)
km/h
RS
W/m2
00:00 - 00:30 8.5 8.7 8.4 100 0.0 4.3 71 6.5 0
00:30 - 01:00 8.2 8.6 7.9 100 0.0 3.2 64 5.4 0
01:00 - 01:30 8.2 8.5 7.8 100 0.0 3.2 69 4.3 0
01:30 - 02:00 8.3 8.8 7.9 100 0.0 1.8 99 3.6 0
02:00 - 02:30 9.1 9.3 8.9 100 0.0 1.8 101 4.3 0
02:30 - 03:00 9.3 9.3 9.2 100 0.0 4.0 64 9.0 0
03:00 - 03:30 9.0 9.3 8.8 100 0.0 1.8 45 9.0 0
03:30 - 04:00 8.7 8.8 8.6 100 0.1 1.4 77 2.9 0
04:00 - 04:30 8.2 8.5 7.9 100 0.0 1.4 13 4.0 0
04:30 - 05:00 7.8 7.9 7.7 100 0.0 1.8 32 3.6 0
05:00 - 05:30 7.4 7.7 7.3 100 0.0 2.2 62 5.8 0
05:30 - 06:00 7.6 7.6 7.5 100 0.0 3.2 65 7.2 0
06:00 - 06:30 7.6 7.7 7.5 100 0.0 4.0 54 7.6 2
06:30 - 07:00 8.0 8.3 7.7 99 0.0 6.1 57 14.0 13
07:00 - 07:30 8.2 8.3 8.1 98 0.0 2.5 5 8.6 38
07:30 - 08:00 8.5 8.9 8.2 100 0.0 2.2 196 5.4 96
08:00 - 08:30 9.2 9.5 8.8 98 0.0 1.8 63 4.3 103
08:30 - 09:00 9.8 10.2 9.3 98 0.0 1.4 106 2.9 133
09:00 - 09:30 10.5 11.0 10.2 93 0.0 3.6 48 6.8 146
09:30 - 10:00 11.3 11.6 11.0 91 0.0 2.9 301 7.6 225
10:00 - 10:30 12.0 12.2 11.7 89 0.0 2.5 79 7.2 145
10:30 - 11:00 11.8 12.0 11.5 90 0.0 4.0 354 8.6 112
11:00 - 11:30 11.8 12.0 11.5 94 0.0 3.2 230 8.3 102
11:30 - 12:00 10.9 11.6 10.5 98 0.1 6.1 126 16.6 63
12:00 - 12:30 11.5 12.7 10.7 98 0.0 2.5 68 6.1 274
12:30 - 13:00 13.4 13.8 12.8 83 0.0 3.6 111 9.7 363
13:00 - 13:30 13.2 13.5 12.8 82 0.0 2.9 149 7.9 149
13:30 - 14:00 12.1 12.8 11.8 87 0.0 6.1 42 12.6 114
14:00 - 14:30 12.1 12.3 12.0 89 0.0 4.3 48 8.6 88
14:30 - 15:00 11.8 12.0 11.7 92 0.0 3.6 83 7.6 46
15:00 - 15:30 11.8 12.0 11.7 93 0.0 4.0 75 9.0 30
15:30 - 16:00 11.9 12.0 11.8 92 0.0 2.9 57 5.4 51
16:00 - 16:30 11.5 11.8 11.3 95 0.3 4.7 61 9.4 4
16:30 - 17:00 11.1 11.3 10.8 95 0.0 5.8 61 12.6 2
17:00 - 17:30 10.5 10.9 10.0 99 0.0 2.5 69 4.3 0
17:30 - 18:00 10.1 10.3 10.0 100 0.0 4.3 37 9.0 0
18:00 - 18:30 10.2 10.3 10.2 100 0.0 4.7 57 7.2 0
18:30 - 19:00 10.1 10.2 10.0 99 0.0 5.4 52 9.0 0
19:00 - 19:30 9.9 10.1 9.9 100 0.0 5.4 52 7.9 0
19:30 - 20:00 9.8 10.1 9.4 100 0.0 3.6 49 7.2 0
20:00 - 20:30 9.6 9.7 9.5 100 0.0 4.0 54 7.9 0
20:30 - 21:00 9.4 9.7 9.1 100 0.0 5.0 44 7.9 0
21:00 - 21:30 9.4 9.6 9.1 100 0.0 6.5 49 14.0 0
21:30 - 22:00 9.7 9.8 9.6 100 0.0 8.3 34 13.0 0
22:00 - 22:30 9.9 10.1 9.8 99 0.1 9.4 32 15.5 0
22:30 - 23:00 9.7 9.9 9.5 98 0.0 8.3 29 14.8 0
23:00 - 23:30 (s/d) (s/d) (s/d) (s/d) (s/d) (s/d) (s/d) (s/d) (s/d)

Les dades en taronja només han passat un control de qualitat automàtic. Resta pendent la seva validació definitiva.